createdAt,value
2023-01-26T00:02:16.759Z,19.17
2023-01-26T00:04:49.967Z,19.77
2023-01-26T00:07:21.683Z,18.85
2023-01-26T00:09:53.399Z,19.90
2023-01-26T00:12:25.533Z,19.85
2023-01-26T00:14:57.200Z,20.63
2023-01-26T00:17:31.609Z,21.88
2023-01-26T00:20:06.541Z,19.23
2023-01-26T00:22:38.264Z,21.40
2023-01-26T00:25:10.775Z,19.90
2023-01-26T00:27:43.793Z,19.80
2023-01-26T00:30:18.291Z,20.27
2023-01-26T00:32:50.394Z,20.02
2023-01-26T00:35:22.008Z,20.45
2023-01-26T00:37:54.932Z,21.40
2023-01-26T00:40:26.689Z,21.30
2023-01-26T00:42:59.786Z,20.17
2023-01-26T00:45:31.789Z,20.33
2023-01-26T00:48:03.489Z,19.65
2023-01-26T00:50:37.117Z,18.83
2023-01-26T00:53:10.461Z,19.63
2023-01-26T00:55:42.239Z,20.38
2023-01-26T00:58:16.928Z,18.95
2023-01-26T01:00:48.582Z,19.30
2023-01-26T01:03:20.293Z,18.73
2023-01-26T01:05:52.803Z,19.42
2023-01-26T01:08:27.521Z,19.13
2023-01-26T01:11:10.971Z,18.92
2023-01-26T01:13:42.998Z,18.40
2023-01-26T01:16:16.639Z,17.92
2023-01-26T01:18:56.137Z,17.73
2023-01-26T01:21:27.880Z,19.15
2023-01-26T01:24:00.497Z,18.08
2023-01-26T01:26:33.044Z,16.92
2023-01-26T01:29:05.478Z,17.83
2023-01-26T01:31:37.346Z,18.55
2023-01-26T01:34:12.274Z,17.15
2023-01-26T01:36:45.141Z,18.83
2023-01-26T01:39:19.558Z,16.98
2023-01-26T01:41:51.216Z,17.27
2023-01-26T01:44:24.942Z,17.02
2023-01-26T01:47:04.126Z,17.80
2023-01-26T01:49:45.653Z,17.10
2023-01-26T01:52:21.219Z,18.52
2023-01-26T01:54:59.708Z,20.52
2023-01-26T01:57:46.580Z,19.35
2023-01-26T02:00:21.213Z,18.70
2023-01-26T02:03:19.029Z,18.42
2023-01-26T02:06:14.746Z,18.63
2023-01-26T02:08:49.558Z,19.00
2023-01-26T02:14:27.485Z,18.90
2023-01-26T02:16:59.426Z,20.25
2023-01-26T02:20:03.187Z,17.40
2023-01-26T02:22:51.629Z,19.02
2023-01-26T02:25:36.999Z,20.52
2023-01-26T02:28:08.942Z,20.10
2023-01-26T02:30:43.493Z,20.38
2023-01-26T02:33:29.710Z,19.85
2023-01-26T02:36:06.388Z,19.35
2023-01-26T02:38:53.302Z,21.42
2023-01-26T02:41:46.927Z,21.35
2023-01-26T02:44:19.867Z,21.42
2023-01-26T02:46:53.099Z,22.70
2023-01-26T02:49:44.322Z,21.48
2023-01-26T02:52:19.126Z,20.85
2023-01-26T02:55:13.989Z,22.38
2023-01-26T02:57:46.473Z,21.67
2023-01-26T03:00:24.613Z,22.30
2023-01-26T03:03:00.665Z,22.23
2023-01-26T03:05:32.395Z,21.17
2023-01-26T03:08:06.124Z,20.58
2023-01-26T03:10:41.213Z,19.88
2023-01-26T03:13:12.955Z,20.27
2023-01-26T03:15:47.982Z,20.13
2023-01-26T03:18:40.451Z,19.63
2023-01-26T03:21:33.282Z,19.63
2023-01-26T03:24:23.646Z,19.92
2023-01-26T03:27:20.713Z,18.65
2023-01-26T03:29:53.137Z,21.33
2023-01-26T03:32:25.490Z,20.65
2023-01-26T03:34:57.564Z,21.05
2023-01-26T03:37:36.879Z,21.33
2023-01-26T03:40:37.398Z,21.55
2023-01-26T03:43:28.466Z,19.67
2023-01-26T03:46:22.105Z,21.75
2023-01-26T03:49:13.068Z,19.20
2023-01-26T03:52:03.401Z,18.23
2023-01-26T03:54:53.604Z,19.42
2023-01-26T03:57:25.295Z,19.95
2023-01-26T03:59:56.961Z,20.80
2023-01-26T04:02:50.722Z,20.58
2023-01-26T04:05:42.135Z,20.30
2023-01-26T04:08:23.749Z,19.98
2023-01-26T04:11:00.861Z,18.92
2023-01-26T04:13:52.369Z,17.20
2023-01-26T04:16:48.327Z,18.38
2023-01-26T04:19:39.196Z,18.27
2023-01-26T04:22:14.589Z,17.15
2023-01-26T04:24:47.524Z,16.60
2023-01-26T04:27:21.323Z,16.98
2023-01-26T04:29:53.091Z,15.45
2023-01-26T04:32:24.918Z,14.85
2023-01-26T04:34:56.987Z,16.20
2023-01-26T04:37:35.869Z,15.50
2023-01-26T04:40:09.959Z,14.68
2023-01-26T04:42:42.812Z,15.98
2023-01-26T04:45:15.758Z,15.80
2023-01-26T04:47:50.884Z,14.68
2023-01-26T04:50:23.181Z,15.38
2023-01-26T04:52:55.833Z,15.10
2023-01-26T04:55:27.474Z,14.98
2023-01-26T04:57:59.245Z,14.52
2023-01-26T05:00:31.566Z,16.23
2023-01-26T05:03:04.662Z,15.13
2023-01-26T05:05:37.800Z,14.50
2023-01-26T05:08:13.488Z,13.80
2023-01-26T05:13:27.719Z,13.30
2023-01-26T05:16:28.541Z,14.73
2023-01-26T05:19:26.143Z,14.70
2023-01-26T05:22:16.107Z,14.23
2023-01-26T05:25:08.381Z,13.27
2023-01-26T05:27:52.812Z,14.40
2023-01-26T05:30:24.564Z,14.23
2023-01-26T05:33:10.217Z,14.50
2023-01-26T05:35:43.777Z,15.27
2023-01-26T05:38:16.189Z,13.15
2023-01-26T05:40:49.493Z,14.48
2023-01-26T05:43:27.514Z,16.40
2023-01-26T05:46:34.315Z,14.25
2023-01-26T05:49:07.375Z,14.32
2023-01-26T05:51:39.821Z,14.90
2023-01-26T05:54:12.405Z,14.60
2023-01-26T05:56:44.871Z,14.13
2023-01-26T05:59:18.260Z,14.32
2023-01-26T06:01:51.342Z,14.93
2023-01-26T06:04:23.526Z,14.18
2023-01-26T06:07:00.619Z,15.63
2023-01-26T06:09:42.156Z,14.05
2023-01-26T06:12:38.647Z,10.63
2023-01-26T06:15:33.748Z,14.55
2023-01-26T06:18:05.647Z,15.70
2023-01-26T06:20:41.473Z,16.65
2023-01-26T06:23:16.447Z,17.10
2023-01-26T06:25:51.819Z,17.33
2023-01-26T06:28:26.837Z,17.02
2023-01-26T06:31:06.482Z,17.95
2023-01-26T06:33:39.037Z,18.08
2023-01-26T06:36:15.796Z,17.55
2023-01-26T06:38:54.949Z,16.27
2023-01-26T06:41:28.055Z,16.48
2023-01-26T06:44:01.055Z,17.35
2023-01-26T06:46:32.778Z,16.73
2023-01-26T06:49:09.794Z,18.10
2023-01-26T06:51:50.549Z,15.98
2023-01-26T06:54:23.358Z,16.80
2023-01-26T06:57:24.557Z,16.15
2023-01-26T07:00:17.580Z,16.63
2023-01-26T07:03:01.494Z,16.20
2023-01-26T07:05:33.229Z,16.08
2023-01-26T07:08:07.581Z,16.10
2023-01-26T07:10:39.357Z,16.42
2023-01-26T07:13:11.111Z,15.20
2023-01-26T07:15:42.811Z,17.00
2023-01-26T07:18:14.540Z,14.98
2023-01-26T07:20:46.202Z,12.75
2023-01-26T07:23:17.840Z,15.00
2023-01-26T07:25:49.558Z,14.38
2023-01-26T07:28:21.241Z,14.00
2023-01-26T07:30:57.267Z,14.63
2023-01-26T07:33:29.728Z,14.35
2023-01-26T07:36:02.225Z,17.38
2023-01-26T07:38:34.565Z,15.10
2023-01-26T07:41:09.341Z,14.52
2023-01-26T07:43:42.557Z,14.48
2023-01-26T07:46:14.572Z,14.35
2023-01-26T07:48:47.339Z,13.82
2023-01-26T07:51:21.819Z,15.85
2023-01-26T07:53:53.706Z,14.50
2023-01-26T07:56:25.673Z,14.50
2023-01-26T07:58:57.826Z,14.50
2023-01-26T08:01:30.453Z,14.25
2023-01-26T08:04:02.099Z,16.02
2023-01-26T08:06:33.737Z,15.93
2023-01-26T08:09:05.515Z,17.00
2023-01-26T08:11:37.428Z,17.52
2023-01-26T08:14:11.894Z,17.35
2023-01-26T08:16:45.487Z,16.83
2023-01-26T08:19:17.286Z,16.38
2023-01-26T08:21:48.881Z,17.27
2023-01-26T08:24:20.592Z,17.20
2023-01-26T08:26:52.343Z,16.75
2023-01-26T08:29:24.065Z,17.45
2023-01-26T08:31:58.968Z,16.02
2023-01-26T08:37:03.875Z,16.98
2023-01-26T08:39:35.619Z,16.38
2023-01-26T08:42:07.330Z,16.40
2023-01-26T08:44:39.276Z,16.92
2023-01-26T08:47:13.904Z,19.10
2023-01-26T08:49:45.644Z,17.67
2023-01-26T08:52:17.527Z,15.82
2023-01-26T08:54:51.299Z,16.83
2023-01-26T08:57:23.114Z,16.83
2023-01-26T09:02:29.591Z,16.45
2023-01-26T09:05:01.325Z,16.23
2023-01-26T09:07:32.995Z,16.75
2023-01-26T09:10:09.967Z,15.77
2023-01-26T09:12:41.944Z,15.23
2023-01-26T09:15:13.700Z,18.30
2023-01-26T09:17:49.236Z,17.25
2023-01-26T09:20:23.586Z,15.52
2023-01-26T09:22:55.272Z,16.33
2023-01-26T09:25:26.936Z,15.30
2023-01-26T09:27:58.669Z,15.93
2023-01-26T09:30:30.727Z,16.48
2023-01-26T09:33:06.025Z,15.52
2023-01-26T09:35:40.492Z,16.67
2023-01-26T09:38:12.199Z,15.23
2023-01-26T09:41:08.131Z,16.58
2023-01-26T09:43:58.558Z,16.40
2023-01-26T09:46:57.122Z,14.82
2023-01-26T09:50:01.458Z,15.35
2023-01-26T09:52:39.408Z,15.48
2023-01-26T09:55:20.221Z,15.82
2023-01-26T09:58:01.169Z,16.38
2023-01-26T10:00:39.338Z,15.77
2023-01-26T10:03:14.474Z,15.02
2023-01-26T10:05:54.388Z,14.02
2023-01-26T10:09:25.231Z,14.90
2023-01-26T10:12:01.679Z,15.18
2023-01-26T10:14:45.030Z,15.93
2023-01-26T10:17:23.930Z,14.68
2023-01-26T10:20:02.870Z,14.48
2023-01-26T10:22:52.561Z,15.88
2023-01-26T10:25:37.424Z,13.40
2023-01-26T10:28:26.122Z,13.43
2023-01-26T10:30:59.293Z,13.35
2023-01-26T10:33:36.999Z,14.10
2023-01-26T10:36:12.549Z,12.13
2023-01-26T10:38:45.828Z,12.98
2023-01-26T10:41:28.975Z,12.88
2023-01-26T10:44:09.738Z,11.77
2023-01-26T10:46:42.746Z,11.93
2023-01-26T10:49:17.690Z,11.35
2023-01-26T10:54:39.685Z,10.68
2023-01-26T10:57:32.572Z,10.00
2023-01-26T11:00:29.105Z,10.20
2023-01-26T11:03:18.697Z,10.70
2023-01-26T11:06:07.101Z,10.23
2023-01-26T11:08:39.837Z,11.82
2023-01-26T11:11:27.023Z,10.80
2023-01-26T11:14:19.301Z,11.15
2023-01-26T11:16:59.272Z,11.90
2023-01-26T11:19:43.117Z,12.38
2023-01-26T11:22:45.314Z,13.18
2023-01-26T11:25:40.316Z,12.27
2023-01-26T11:28:20.884Z,13.93
2023-01-26T11:30:59.509Z,12.77
2023-01-26T11:33:50.457Z,12.10
2023-01-26T11:36:37.508Z,13.07
2023-01-26T11:39:21.637Z,13.43
2023-01-26T11:42:25.735Z,13.75
2023-01-26T11:45:19.659Z,13.00
2023-01-26T11:48:13.816Z,14.65
2023-01-26T11:50:54.345Z,15.10
2023-01-26T11:53:41.273Z,14.15
2023-01-26T11:56:37.505Z,14.93
2023-01-26T11:59:21.974Z,14.35
2023-01-26T12:02:05.651Z,13.70
2023-01-26T12:04:45.446Z,11.50
2023-01-26T12:07:30.244Z,11.57
2023-01-26T12:10:04.952Z,11.43
2023-01-26T12:15:29.063Z,12.35
2023-01-26T12:18:09.965Z,13.00
2023-01-26T12:21:11.888Z,13.38
2023-01-26T12:24:02.528Z,13.15
2023-01-26T12:26:40.304Z,12.77
2023-01-26T12:29:41.691Z,12.85
2023-01-26T12:32:16.937Z,11.25
2023-01-26T12:34:49.012Z,11.15
2023-01-26T12:37:26.557Z,9.65
2023-01-26T12:40:24.061Z,11.05
2023-01-26T12:43:06.223Z,9.15
2023-01-26T12:45:45.766Z,9.77
2023-01-26T12:48:25.749Z,8.15
2023-01-26T12:51:04.763Z,8.82
2023-01-26T12:53:48.368Z,8.63
2023-01-26T12:56:30.390Z,10.10
2023-01-26T12:59:23.220Z,8.90
2023-01-26T13:05:01.716Z,8.30
2023-01-26T13:07:35.042Z,7.35
2023-01-26T13:10:17.642Z,8.27
2023-01-26T13:13:01.435Z,8.32
2023-01-26T13:15:33.299Z,8.98
2023-01-26T13:18:05.044Z,10.13
2023-01-26T13:21:08.586Z,8.35
2023-01-26T13:23:43.285Z,9.93
2023-01-26T13:26:21.559Z,9.55
2023-01-26T13:29:25.380Z,10.18
2023-01-26T13:32:17.303Z,9.32
2023-01-26T13:34:59.761Z,8.95
2023-01-26T13:37:34.833Z,8.45
2023-01-26T13:40:31.312Z,8.40
2023-01-26T13:43:40.295Z,9.15
2023-01-26T13:46:22.064Z,9.30
2023-01-26T13:48:56.080Z,9.65
2023-01-26T13:51:35.912Z,9.63
2023-01-26T13:54:16.195Z,9.65
2023-01-26T13:57:24.247Z,9.60
2023-01-26T14:00:02.483Z,9.80
2023-01-26T14:02:38.847Z,10.43
2023-01-26T14:05:22.555Z,9.98
2023-01-26T14:07:54.383Z,10.23
2023-01-26T14:10:27.936Z,10.43
2023-01-26T14:13:04.211Z,10.80
2023-01-26T14:15:35.890Z,9.88
2023-01-26T14:18:22.141Z,9.70
2023-01-26T14:21:05.642Z,10.60
2023-01-26T14:23:37.386Z,10.35
2023-01-26T14:26:21.871Z,10.30
2023-01-26T14:28:53.577Z,9.07
2023-01-26T14:31:27.384Z,9.68
2023-01-26T14:34:02.445Z,9.03
2023-01-26T14:36:39.187Z,10.70
2023-01-26T14:39:18.385Z,10.40
2023-01-26T14:41:52.282Z,10.25
2023-01-26T14:44:23.967Z,9.35
2023-01-26T14:47:06.250Z,9.02
2023-01-26T14:50:02.656Z,8.55
2023-01-26T14:52:40.581Z,9.88
2023-01-26T14:55:28.164Z,10.13
2023-01-26T14:58:03.777Z,9.02
2023-01-26T15:03:30.444Z,10.48
2023-01-26T15:06:05.205Z,8.73
2023-01-26T15:08:40.872Z,10.18
2023-01-26T15:11:31.905Z,10.30
2023-01-26T15:14:03.801Z,9.80
2023-01-26T15:16:53.648Z,10.20
2023-01-26T15:19:32.010Z,10.85
2023-01-26T15:22:20.556Z,10.95
2023-01-26T15:25:05.432Z,10.40
2023-01-26T15:27:37.357Z,10.70
2023-01-26T15:30:17.501Z,11.23
2023-01-26T15:32:49.686Z,12.13
2023-01-26T15:35:28.453Z,13.07
2023-01-26T15:38:11.836Z,12.70
2023-01-26T15:40:43.572Z,11.88
2023-01-26T15:43:16.192Z,11.77
2023-01-26T15:45:58.804Z,10.98
2023-01-26T15:48:34.281Z,11.38
2023-01-26T15:51:13.771Z,11.45
2023-01-26T15:53:45.501Z,11.73
2023-01-26T15:56:17.240Z,12.45
2023-01-26T15:58:48.968Z,11.30
2023-01-26T16:01:23.606Z,10.40
2023-01-26T16:03:55.289Z,11.20
2023-01-26T16:06:31.547Z,11.25
2023-01-26T16:09:03.598Z,10.73
2023-01-26T16:11:41.391Z,11.23
2023-01-26T16:14:13.581Z,11.20
2023-01-26T16:16:45.497Z,13.15
2023-01-26T16:19:34.374Z,13.35
2023-01-26T16:22:11.748Z,13.40
2023-01-26T16:24:43.825Z,13.75
2023-01-26T16:27:15.524Z,13.13
2023-01-26T16:29:47.201Z,13.35
2023-01-26T16:32:29.445Z,13.85
2023-01-26T16:35:01.083Z,12.65
2023-01-26T16:37:32.860Z,13.25
2023-01-26T16:40:05.617Z,13.93
2023-01-26T16:42:40.657Z,13.27
2023-01-26T16:45:20.481Z,14.02
2023-01-26T16:47:55.647Z,14.32
2023-01-26T16:50:27.340Z,12.70
2023-01-26T16:52:59.521Z,12.35
2023-01-26T16:55:31.130Z,12.32
2023-01-26T16:58:02.824Z,11.75
2023-01-26T17:00:34.945Z,11.15
2023-01-26T17:03:09.330Z,12.27
2023-01-26T17:05:41.440Z,14.63
2023-01-26T17:08:13.266Z,13.70
2023-01-26T17:11:00.601Z,11.95
2023-01-26T17:13:33.126Z,13.05
2023-01-26T17:16:05.194Z,12.70
2023-01-26T17:18:38.938Z,11.73
2023-01-26T17:21:14.402Z,12.63
2023-01-26T17:23:51.137Z,11.07
2023-01-26T17:26:23.501Z,11.57
2023-01-26T17:28:56.577Z,12.10
2023-01-26T17:31:31.706Z,11.70
2023-01-26T17:34:03.405Z,12.32
2023-01-26T17:36:35.902Z,12.82
2023-01-26T17:39:09.854Z,12.80
2023-01-26T17:41:41.484Z,12.03
2023-01-26T17:44:14.460Z,13.45
2023-01-26T17:46:48.881Z,12.15
2023-01-26T17:49:21.606Z,11.63
2023-01-26T17:51:53.370Z,12.70
2023-01-26T17:54:31.268Z,10.75
2023-01-26T17:57:03.002Z,11.18
2023-01-26T17:59:34.771Z,13.20
2023-01-26T18:02:07.021Z,12.25
2023-01-26T18:04:40.357Z,11.00
2023-01-26T18:07:15.106Z,11.85
2023-01-26T18:09:47.651Z,11.23
2023-01-26T18:12:19.365Z,12.30
2023-01-26T18:14:55.208Z,11.98
2023-01-26T18:17:26.989Z,16.00
2023-01-26T18:19:58.701Z,10.88
2023-01-26T18:22:30.819Z,13.30
2023-01-26T18:25:02.539Z,12.90
2023-01-26T18:27:34.242Z,13.13
2023-01-26T18:30:06.620Z,13.50
2023-01-26T18:32:39.088Z,12.20
2023-01-26T18:35:11.235Z,12.93
2023-01-26T18:37:43.080Z,13.55
2023-01-26T18:40:15.340Z,12.90
2023-01-26T18:42:54.195Z,13.50
2023-01-26T18:45:25.956Z,13.40
2023-01-26T18:47:58.766Z,13.90
2023-01-26T18:50:30.429Z,13.98
2023-01-26T18:53:03.507Z,13.40
2023-01-26T18:55:37.593Z,13.18
2023-01-26T18:58:12.146Z,13.05
2023-01-26T19:00:43.873Z,14.30
2023-01-26T19:03:18.147Z,13.75
2023-01-26T19:05:50.735Z,13.52
2023-01-26T19:08:25.439Z,13.68
2023-01-26T19:10:57.677Z,14.30
2023-01-26T19:13:29.383Z,14.52
2023-01-26T19:16:01.232Z,14.90
2023-01-26T19:18:32.890Z,13.82
2023-01-26T19:21:05.656Z,14.13
2023-01-26T19:23:42.627Z,15.25
2023-01-26T19:26:19.986Z,13.93
2023-01-26T19:28:52.275Z,13.05
2023-01-26T19:31:27.606Z,12.60
2023-01-26T19:34:01.571Z,12.27
2023-01-26T19:36:40.133Z,14.57
2023-01-26T19:39:13.671Z,14.07
2023-01-26T19:41:46.343Z,13.95
2023-01-26T19:44:18.195Z,13.43
2023-01-26T19:46:51.445Z,13.93
2023-01-26T19:49:25.903Z,14.32
2023-01-26T19:51:57.642Z,12.07
2023-01-26T19:54:29.310Z,14.55
2023-01-26T19:57:01.002Z,13.00
2023-01-26T19:59:32.673Z,13.98
2023-01-26T20:02:04.434Z,13.23
2023-01-26T20:04:36.145Z,13.15
2023-01-26T20:07:08.992Z,13.45
2023-01-26T20:09:40.695Z,14.52
2023-01-26T20:12:12.433Z,14.25
2023-01-26T20:14:44.223Z,12.93
2023-01-26T20:17:18.300Z,15.07
2023-01-26T20:19:50.294Z,13.40
2023-01-26T20:22:24.107Z,13.20
2023-01-26T20:24:55.809Z,14.45
2023-01-26T20:27:29.404Z,12.95
2023-01-26T20:30:01.221Z,13.82
2023-01-26T20:32:34.359Z,13.50
2023-01-26T20:35:08.699Z,11.40
2023-01-26T20:37:40.507Z,12.82
2023-01-26T20:40:13.022Z,13.88
2023-01-26T20:42:46.205Z,11.68
2023-01-26T20:45:18.415Z,11.63
2023-01-26T20:47:50.175Z,11.35
2023-01-26T20:50:22.194Z,10.52
2023-01-26T20:52:53.870Z,12.00
2023-01-26T20:55:25.506Z,12.20
2023-01-26T20:57:57.158Z,12.50
2023-01-26T21:00:31.091Z,12.60
2023-01-26T21:03:06.631Z,12.57
2023-01-26T21:05:38.328Z,14.73
2023-01-26T21:08:10.829Z,13.23
2023-01-26T21:10:48.973Z,14.00
2023-01-26T21:13:21.347Z,14.63
2023-01-26T21:15:53.186Z,14.55
2023-01-26T21:18:24.917Z,15.73
2023-01-26T21:21:03.481Z,15.18
2023-01-26T21:23:35.460Z,14.30
2023-01-26T21:26:13.021Z,14.80
2023-01-26T21:28:45.371Z,14.68
2023-01-26T21:31:17.118Z,14.60
2023-01-26T21:33:51.541Z,14.80
2023-01-26T21:36:26.143Z,13.98
2023-01-26T21:39:00.154Z,14.65
2023-01-26T21:41:52.081Z,13.70
2023-01-26T21:44:53.684Z,14.60
2023-01-26T21:47:25.367Z,13.82
2023-01-26T21:49:59.354Z,13.95
2023-01-26T21:52:49.524Z,15.63
2023-01-26T21:55:21.174Z,13.15
2023-01-26T21:58:12.139Z,14.05
2023-01-26T22:00:43.831Z,13.85
2023-01-26T22:03:15.520Z,14.52
2023-01-26T22:05:56.869Z,15.00
2023-01-26T22:08:28.693Z,15.82
2023-01-26T22:11:01.724Z,14.27
2023-01-26T22:13:35.860Z,12.80
2023-01-26T22:16:08.884Z,13.68
2023-01-26T22:18:40.679Z,13.95
2023-01-26T22:21:15.523Z,16.35
2023-01-26T22:26:24.134Z,14.40
2023-01-26T22:28:57.625Z,15.82
2023-01-26T22:31:30.519Z,16.23
2023-01-26T22:34:02.541Z,14.60
2023-01-26T22:36:34.326Z,14.05
2023-01-26T22:39:06.179Z,14.32
2023-01-26T22:41:38.078Z,13.43
2023-01-26T22:44:12.631Z,14.75
2023-01-26T22:46:44.329Z,14.73
2023-01-26T22:49:16.108Z,15.63
2023-01-26T22:51:47.818Z,15.07
2023-01-26T22:54:19.464Z,15.25
2023-01-26T22:56:51.153Z,16.10
2023-01-26T22:59:22.913Z,14.65
2023-01-26T23:01:57.530Z,14.82
2023-01-26T23:04:29.258Z,14.68
2023-01-26T23:07:01.829Z,15.00
2023-01-26T23:09:33.542Z,13.93
2023-01-26T23:12:07.286Z,13.70
2023-01-26T23:14:39.003Z,16.75
2023-01-26T23:17:11.459Z,15.18
2023-01-26T23:19:45.792Z,14.70
2023-01-26T23:22:17.518Z,14.98
2023-01-26T23:25:09.201Z,15.20
2023-01-26T23:27:40.846Z,14.57
2023-01-26T23:30:13.097Z,16.05
2023-01-26T23:32:44.985Z,15.95
2023-01-26T23:35:17.838Z,16.15
2023-01-26T23:37:51.511Z,15.90
2023-01-26T23:40:24.282Z,15.45
2023-01-26T23:43:10.565Z,16.05
2023-01-26T23:46:43.861Z,15.45
2023-01-26T23:49:15.647Z,15.38
2023-01-26T23:51:47.252Z,16.52
2023-01-26T23:54:18.928Z,15.20
2023-01-26T23:56:50.669Z,15.10
2023-01-26T23:59:22.357Z,16.10
